createdAt,value
2023-05-21T00:00:10.882Z,5.95
2023-05-21T00:03:04.252Z,6.35
2023-05-21T00:05:55.684Z,6.45
2023-05-21T00:08:47.150Z,6.92
2023-05-21T00:11:38.528Z,6.00
2023-05-21T00:14:29.842Z,6.50
2023-05-21T00:17:21.556Z,6.40
2023-05-21T00:20:14.066Z,5.70
2023-05-21T00:23:05.525Z,5.10
2023-05-21T00:25:57.001Z,4.92
2023-05-21T00:28:48.370Z,5.87
2023-05-21T00:31:39.828Z,6.37
2023-05-21T00:34:31.177Z,5.55
2023-05-21T00:37:23.912Z,6.35
2023-05-21T00:40:15.610Z,5.65
2023-05-21T00:43:08.378Z,5.50
2023-05-21T00:46:02.507Z,5.62
2023-05-21T00:48:54.061Z,6.33
2023-05-21T00:51:45.386Z,6.10
2023-05-21T00:54:36.704Z,6.78
2023-05-21T00:57:28.772Z,7.17
2023-05-21T01:00:21.054Z,6.62
2023-05-21T01:03:14.030Z,5.80
2023-05-21T01:06:06.092Z,6.20
2023-05-21T01:08:58.147Z,5.72
2023-05-21T01:11:51.504Z,6.42
2023-05-21T01:14:44.066Z,5.58
2023-05-21T01:17:35.850Z,5.50
2023-05-21T01:20:28.202Z,5.70
2023-05-21T01:23:20.862Z,5.75
2023-05-21T01:26:13.262Z,6.08
2023-05-21T01:29:10.223Z,6.22
2023-05-21T01:32:05.206Z,5.67
2023-05-21T01:35:01.739Z,6.03
2023-05-21T01:37:57.498Z,5.50
2023-05-21T01:40:53.286Z,5.87
2023-05-21T01:43:47.676Z,5.97
2023-05-21T01:46:39.889Z,6.80
2023-05-21T01:49:32.304Z,6.28
2023-05-21T01:52:23.563Z,6.55
2023-05-21T01:55:14.915Z,6.03
2023-05-21T01:58:06.459Z,6.83
2023-05-21T02:01:03.049Z,6.42
2023-05-21T02:03:54.656Z,6.00
2023-05-21T02:06:46.254Z,6.15
2023-05-21T02:09:37.609Z,6.10
2023-05-21T02:12:30.349Z,6.50
2023-05-21T02:15:22.726Z,6.80
2023-05-21T02:18:16.858Z,7.35
2023-05-21T02:21:09.058Z,6.70
2023-05-21T02:24:00.306Z,6.50
2023-05-21T02:26:52.725Z,6.20
2023-05-21T02:29:44.674Z,6.35
2023-05-21T02:32:36.226Z,6.45
2023-05-21T02:35:28.151Z,6.17
2023-05-21T02:38:21.775Z,6.37
2023-05-21T02:41:13.607Z,6.53
2023-05-21T02:44:05.464Z,6.55
2023-05-21T02:46:56.771Z,6.30
2023-05-21T02:49:48.500Z,5.95
2023-05-21T02:52:41.621Z,6.87
2023-05-21T02:55:33.383Z,6.03
2023-05-21T02:58:25.802Z,6.50
2023-05-21T03:01:17.504Z,6.33
2023-05-21T03:04:09.384Z,6.95
2023-05-21T03:07:02.295Z,6.90
2023-05-21T03:09:54.781Z,6.90
2023-05-21T03:12:46.063Z,7.08
2023-05-21T03:15:39.583Z,7.22
2023-05-21T03:18:32.723Z,5.95
2023-05-21T03:21:23.805Z,6.40
2023-05-21T03:24:15.522Z,6.78
2023-05-21T03:27:07.650Z,6.95
2023-05-21T03:29:59.551Z,6.65
2023-05-21T03:32:51.552Z,6.85
2023-05-21T03:35:42.858Z,6.90
2023-05-21T03:38:35.963Z,7.17
2023-05-21T03:41:28.131Z,6.35
2023-05-21T03:44:21.043Z,6.78
2023-05-21T03:47:17.352Z,7.53
2023-05-21T03:50:12.532Z,6.75
2023-05-21T03:53:04.332Z,6.35
2023-05-21T03:55:55.910Z,6.67
2023-05-21T03:58:51.274Z,6.70
2023-05-21T04:01:43.865Z,6.70
2023-05-21T04:04:38.793Z,7.05
2023-05-21T04:07:31.459Z,6.80
2023-05-21T04:10:24.241Z,7.83
2023-05-21T04:13:15.998Z,7.33
2023-05-21T04:16:09.180Z,6.85
2023-05-21T04:19:01.077Z,7.55
2023-05-21T04:21:53.513Z,7.42
2023-05-21T04:24:46.446Z,7.40
2023-05-21T04:27:39.291Z,7.58
2023-05-21T04:30:31.956Z,6.95
2023-05-21T04:33:24.666Z,6.00
2023-05-21T04:36:17.498Z,6.15
2023-05-21T04:39:08.765Z,5.85
2023-05-21T04:42:02.353Z,6.40
2023-05-21T04:44:55.189Z,5.78
2023-05-21T04:47:46.739Z,6.37
2023-05-21T04:50:39.212Z,5.58
2023-05-21T04:53:31.259Z,5.65
2023-05-21T04:56:23.223Z,6.53
2023-05-21T04:59:14.810Z,6.00
2023-05-21T05:02:06.918Z,5.65
2023-05-21T05:04:59.981Z,5.72
2023-05-21T05:07:51.230Z,5.67
2023-05-21T05:10:42.919Z,5.92
2023-05-21T05:13:35.281Z,6.00
2023-05-21T05:16:26.837Z,6.03
2023-05-21T05:19:19.798Z,5.70
2023-05-21T05:22:13.410Z,6.00
2023-05-21T05:25:09.910Z,6.12
2023-05-21T05:28:01.483Z,5.08
2023-05-21T05:30:52.908Z,5.75
2023-05-21T05:33:46.000Z,5.70
2023-05-21T05:36:37.607Z,5.65
2023-05-21T05:39:32.176Z,5.75
2023-05-21T05:42:24.277Z,5.60
2023-05-21T05:45:15.662Z,5.60
2023-05-21T05:48:08.466Z,6.00
2023-05-21T05:51:02.795Z,5.95
2023-05-21T05:53:58.384Z,6.83
2023-05-21T05:56:49.892Z,6.20
2023-05-21T05:59:41.900Z,5.92
2023-05-21T06:02:34.967Z,5.85
2023-05-21T06:05:26.431Z,5.60
2023-05-21T06:08:17.790Z,5.45
2023-05-21T06:11:09.838Z,6.37
2023-05-21T06:14:02.118Z,5.55
2023-05-21T06:16:53.553Z,5.90
2023-05-21T06:22:25.697Z,6.12
2023-05-21T06:25:18.405Z,6.15
2023-05-21T06:28:09.754Z,6.05
2023-05-21T06:31:02.036Z,6.30
2023-05-21T06:33:55.349Z,5.92
2023-05-21T06:36:46.699Z,6.20
2023-05-21T06:39:38.841Z,5.70
2023-05-21T06:42:31.017Z,5.40
2023-05-21T06:45:40.441Z,5.78
2023-05-21T06:48:33.403Z,6.12
2023-05-21T06:51:24.786Z,6.00
2023-05-21T06:54:16.098Z,6.05
2023-05-21T06:57:07.921Z,5.80
2023-05-21T06:59:59.522Z,6.05
2023-05-21T07:02:50.978Z,6.30
2023-05-21T07:05:43.052Z,6.37
2023-05-21T07:08:34.506Z,6.72
2023-05-21T07:11:27.930Z,6.85
2023-05-21T07:14:20.056Z,6.42
2023-05-21T07:17:11.549Z,7.12
2023-05-21T07:20:07.931Z,7.08
2023-05-21T07:23:00.610Z,6.90
2023-05-21T07:25:52.573Z,7.15
2023-05-21T07:28:44.503Z,7.78
2023-05-21T07:31:36.336Z,6.83
2023-05-21T07:34:28.775Z,7.08
2023-05-21T07:37:23.465Z,7.22
2023-05-21T07:42:57.762Z,6.85
2023-05-21T07:45:50.738Z,7.03
2023-05-21T07:48:44.307Z,7.20
2023-05-21T07:51:36.473Z,7.17
2023-05-21T07:54:28.215Z,7.37
2023-05-21T07:59:58.807Z,7.12
2023-05-21T08:02:50.285Z,7.62
2023-05-21T08:08:22.130Z,7.25
2023-05-21T08:11:15.739Z,7.05
2023-05-21T08:14:07.848Z,7.83
2023-05-21T08:16:59.168Z,7.20
2023-05-21T08:19:51.376Z,7.55
2023-05-21T08:22:43.831Z,7.97
2023-05-21T08:25:35.693Z,7.70
2023-05-21T08:28:29.161Z,7.60
2023-05-21T08:31:21.838Z,7.92
2023-05-21T08:34:14.730Z,7.42
2023-05-21T08:37:07.944Z,7.20
2023-05-21T08:40:17.569Z,7.58
2023-05-21T08:43:10.702Z,7.72
2023-05-21T08:46:06.130Z,7.80
2023-05-21T08:49:00.365Z,7.15
2023-05-21T08:51:52.517Z,7.65
2023-05-21T08:54:45.963Z,8.23
2023-05-21T09:00:20.959Z,8.98
2023-05-21T09:03:14.289Z,8.75
2023-05-21T09:06:08.795Z,8.15
2023-05-21T09:09:03.154Z,7.50
2023-05-21T09:11:56.476Z,7.60
2023-05-21T09:14:52.358Z,7.87
2023-05-21T09:17:47.922Z,8.93
2023-05-21T09:20:45.659Z,8.08
2023-05-21T09:23:37.389Z,8.25
2023-05-21T09:26:28.825Z,7.50
2023-05-21T09:29:21.884Z,7.72
2023-05-21T09:32:13.442Z,7.87
2023-05-21T09:35:11.635Z,7.10
2023-05-21T09:40:56.380Z,7.10
2023-05-21T09:43:48.245Z,6.92
2023-05-21T09:46:43.823Z,7.33
2023-05-21T09:49:35.309Z,7.12
2023-05-21T09:52:29.193Z,7.17
2023-05-21T09:55:23.704Z,7.22
2023-05-21T09:58:15.126Z,7.90
2023-05-21T10:01:06.606Z,7.70
2023-05-21T10:04:02.170Z,8.13
2023-05-21T10:06:54.124Z,8.10
2023-05-21T10:09:46.259Z,7.85
2023-05-21T10:12:38.309Z,8.40
2023-05-21T10:15:32.406Z,8.08
2023-05-21T10:18:25.253Z,8.23
2023-05-21T10:21:17.679Z,8.50
2023-05-21T10:24:09.940Z,8.45
2023-05-21T10:27:02.094Z,8.35
2023-05-21T10:29:55.679Z,8.60
2023-05-21T10:32:48.598Z,8.35
2023-05-21T10:35:41.752Z,7.97
2023-05-21T10:38:35.096Z,8.50
2023-05-21T10:41:28.268Z,8.88
2023-05-21T10:44:25.097Z,7.17
2023-05-21T10:47:41.300Z,7.05
2023-05-21T10:50:42.449Z,7.78
2023-05-21T10:53:39.556Z,8.25
2023-05-21T10:56:35.153Z,8.15
2023-05-21T10:59:35.053Z,7.58
2023-05-21T11:02:28.954Z,7.50
2023-05-21T11:05:38.422Z,7.75
2023-05-21T11:08:32.024Z,7.40
2023-05-21T11:11:45.212Z,7.58
2023-05-21T11:14:39.937Z,8.03
2023-05-21T11:17:43.899Z,8.03
2023-05-21T11:20:37.844Z,7.70
2023-05-21T11:23:39.112Z,7.72
2023-05-21T11:26:33.668Z,8.20
2023-05-21T11:29:32.068Z,7.47
2023-05-21T11:32:24.426Z,7.47
2023-05-21T11:35:17.435Z,7.47
2023-05-21T11:38:11.160Z,7.75
2023-05-21T11:41:05.826Z,7.28
2023-05-21T11:44:04.205Z,7.55
2023-05-21T11:46:56.189Z,7.47
2023-05-21T11:49:48.368Z,7.67
2023-05-21T11:52:41.410Z,7.78
2023-05-21T11:55:33.433Z,8.78
2023-05-21T11:58:25.144Z,7.97
2023-05-21T12:01:25.154Z,8.08
2023-05-21T12:04:16.374Z,8.18
2023-05-21T12:07:08.540Z,7.47
2023-05-21T12:09:59.955Z,8.28
2023-05-21T12:12:56.324Z,7.62
2023-05-21T12:15:44.060Z,7.30
2023-05-21T12:18:36.314Z,7.10
2023-05-21T12:21:29.617Z,7.45
2023-05-21T12:24:21.533Z,7.65
2023-05-21T12:27:13.963Z,7.22
2023-05-21T12:30:06.533Z,7.15
2023-05-21T12:33:02.555Z,7.12
2023-05-21T12:35:54.466Z,7.58
2023-05-21T12:38:47.785Z,7.15
2023-05-21T12:41:39.371Z,7.53
2023-05-21T12:44:34.859Z,6.97
2023-05-21T12:47:27.812Z,7.03
2023-05-21T12:50:22.112Z,6.90
2023-05-21T12:53:13.215Z,7.17
2023-05-21T12:56:12.075Z,6.65
2023-05-21T12:59:03.582Z,6.42
2023-05-21T13:01:55.709Z,6.65
2023-05-21T13:04:47.555Z,6.42
2023-05-21T13:07:41.139Z,7.22
2023-05-21T13:10:32.681Z,6.92
2023-05-21T13:13:24.394Z,6.78
2023-05-21T13:16:16.578Z,6.90
2023-05-21T13:19:08.151Z,6.10
2023-05-21T13:21:59.527Z,6.40
2023-05-21T13:24:50.970Z,6.60
2023-05-21T13:27:42.673Z,6.62
2023-05-21T13:30:34.152Z,6.90
2023-05-21T13:33:27.300Z,6.20
2023-05-21T13:36:18.969Z,6.47
2023-05-21T13:39:10.263Z,6.60
2023-05-21T13:42:01.827Z,6.17
2023-05-21T13:44:54.561Z,6.72
2023-05-21T13:47:48.208Z,6.80
2023-05-21T13:50:39.987Z,6.60
2023-05-21T13:53:31.600Z,6.45
2023-05-21T13:56:23.545Z,6.22
2023-05-21T13:59:15.072Z,6.30
2023-05-21T14:02:07.203Z,6.55
2023-05-21T14:04:58.896Z,6.28
2023-05-21T14:07:51.602Z,6.55
2023-05-21T14:10:43.424Z,6.58
2023-05-21T14:13:35.160Z,6.28
2023-05-21T14:19:07.102Z,7.03
2023-05-21T14:21:59.989Z,6.45
2023-05-21T14:24:51.386Z,5.75
2023-05-21T14:30:22.143Z,5.40
2023-05-21T14:33:13.908Z,6.05
2023-05-21T14:38:44.563Z,6.08
2023-05-21T14:44:15.088Z,6.50
2023-05-21T14:49:44.540Z,5.47
2023-05-21T14:52:37.746Z,5.97
2023-05-21T14:58:08.853Z,5.67
2023-05-21T15:01:00.319Z,5.33
2023-05-21T15:03:52.059Z,5.75
2023-05-21T15:06:43.884Z,5.65
2023-05-21T15:09:35.508Z,5.17
2023-05-21T15:12:27.510Z,5.33
2023-05-21T15:15:20.637Z,5.17
2023-05-21T15:18:12.424Z,5.40
2023-05-21T15:21:03.844Z,4.80
2023-05-21T15:23:55.085Z,4.17
2023-05-21T15:26:46.807Z,4.85
2023-05-21T15:29:37.999Z,4.80
2023-05-21T15:32:29.518Z,4.90
2023-05-21T15:35:21.102Z,6.00
2023-05-21T15:38:12.797Z,4.90
2023-05-21T15:41:04.382Z,4.47
2023-05-21T15:43:56.594Z,4.60
2023-05-21T15:46:49.504Z,4.75
2023-05-21T15:49:41.001Z,4.47
2023-05-21T15:52:32.669Z,4.30
2023-05-21T15:55:24.120Z,4.10
2023-05-21T16:00:55.096Z,4.03
2023-05-21T16:06:25.930Z,4.25
2023-05-21T16:09:20.141Z,3.75
2023-05-21T16:12:11.493Z,3.83
2023-05-21T16:15:02.948Z,4.05
2023-05-21T16:17:54.544Z,3.30
2023-05-21T16:23:25.793Z,4.40
2023-05-21T16:26:20.191Z,4.25
2023-05-21T16:29:11.699Z,4.00
2023-05-21T16:32:03.196Z,4.00
2023-05-21T16:34:54.610Z,4.30
2023-05-21T16:37:46.439Z,4.37
2023-05-21T16:40:39.487Z,4.20
2023-05-21T16:43:30.987Z,4.10
2023-05-21T16:46:22.545Z,4.28
2023-05-21T16:49:13.603Z,4.10
2023-05-21T16:52:05.409Z,4.42
2023-05-21T16:54:56.867Z,4.22
2023-05-21T16:57:48.358Z,3.95
2023-05-21T17:00:39.743Z,3.60
2023-05-21T17:03:32.896Z,4.30
2023-05-21T17:06:25.131Z,4.20
2023-05-21T17:09:18.690Z,4.50
2023-05-21T17:12:11.467Z,4.30
2023-05-21T17:15:03.655Z,4.42
2023-05-21T17:17:55.819Z,4.42
2023-05-21T17:20:47.161Z,4.05
2023-05-21T17:23:38.738Z,3.72
2023-05-21T17:26:30.033Z,3.67
2023-05-21T17:29:21.287Z,4.20
2023-05-21T17:32:13.344Z,3.50
2023-05-21T17:35:05.060Z,4.05
2023-05-21T17:40:39.145Z,4.12
2023-05-21T17:43:32.174Z,3.33
2023-05-21T17:46:23.651Z,4.53
2023-05-21T17:49:15.202Z,4.10
2023-05-21T17:52:07.605Z,4.58
2023-05-21T17:54:59.082Z,4.30
2023-05-21T17:57:51.272Z,4.58
2023-05-21T18:00:42.466Z,4.70
2023-05-21T18:03:34.223Z,4.33
2023-05-21T18:06:25.612Z,4.62
2023-05-21T18:11:56.317Z,4.17
2023-05-21T18:14:48.081Z,4.30
2023-05-21T18:17:39.343Z,4.37
2023-05-21T18:23:12.170Z,4.20
2023-05-21T18:26:03.360Z,3.85
2023-05-21T18:28:56.071Z,4.47
2023-05-21T18:31:47.675Z,4.53
2023-05-21T18:48:03.749Z,5.00
2023-05-21T18:50:55.440Z,4.22
2023-05-21T18:53:47.131Z,4.87
2023-05-21T18:56:39.232Z,4.67
2023-05-21T18:59:31.492Z,4.20
2023-05-21T19:02:24.263Z,4.33
2023-05-21T19:05:16.224Z,4.37
2023-05-21T19:08:08.215Z,4.15
2023-05-21T19:10:59.468Z,4.10
2023-05-21T19:13:51.044Z,4.22
2023-05-21T19:16:42.605Z,4.17
2023-05-21T19:19:34.220Z,4.37
2023-05-21T19:22:27.233Z,4.55
2023-05-21T19:25:19.137Z,3.90
2023-05-21T19:28:10.344Z,4.50
2023-05-21T19:31:01.942Z,4.47
2023-05-21T19:33:54.004Z,4.20
2023-05-21T19:36:53.414Z,4.37
2023-05-21T19:39:41.316Z,4.00
2023-05-21T19:42:32.715Z,4.40
2023-05-21T19:45:25.619Z,4.10
2023-05-21T19:48:17.201Z,4.72
2023-05-21T19:51:08.455Z,5.17
2023-05-21T19:53:59.755Z,5.03
2023-05-21T19:56:51.642Z,5.25
2023-05-21T19:59:42.943Z,4.80
2023-05-21T20:02:34.862Z,4.83
2023-05-21T20:05:25.976Z,4.62
2023-05-21T20:08:17.485Z,5.90
2023-05-21T20:11:08.862Z,5.15
2023-05-21T20:14:02.072Z,5.25
2023-05-21T20:16:53.764Z,5.20
2023-05-21T20:19:46.405Z,5.80
2023-05-21T20:22:37.911Z,5.70
2023-05-21T20:25:29.155Z,5.65
2023-05-21T20:31:11.953Z,5.03
2023-05-21T20:36:42.582Z,5.03
2023-05-21T20:39:33.978Z,5.15
2023-05-21T20:42:26.566Z,5.80
2023-05-21T20:45:17.861Z,5.35
2023-05-21T20:48:14.302Z,5.60
2023-05-21T20:51:05.440Z,4.92
2023-05-21T20:53:57.306Z,4.58
2023-05-21T20:56:50.170Z,4.70
2023-05-21T20:59:41.372Z,4.70
2023-05-21T21:02:32.888Z,5.45
2023-05-21T21:05:24.697Z,4.80
2023-05-21T21:08:16.991Z,5.40
2023-05-21T21:11:08.167Z,5.35
2023-05-21T21:13:59.727Z,5.58
2023-05-21T21:16:52.040Z,5.70
2023-05-21T21:19:43.259Z,5.67
2023-05-21T21:22:34.937Z,5.17
2023-05-21T21:25:26.239Z,5.37
2023-05-21T21:28:17.873Z,5.65
2023-05-21T21:31:09.262Z,5.30
2023-05-21T21:34:00.848Z,5.65
2023-05-21T21:36:51.989Z,5.30
2023-05-21T21:39:43.236Z,5.30
2023-05-21T21:42:34.809Z,5.00
2023-05-21T21:45:26.340Z,5.28
2023-05-21T21:48:17.713Z,5.45
2023-05-21T21:51:09.176Z,5.45
2023-05-21T21:54:00.723Z,5.58
2023-05-21T21:56:52.054Z,5.78
2023-05-21T21:59:43.310Z,5.50
2023-05-21T22:02:35.192Z,5.67
2023-05-21T22:05:26.683Z,5.53
2023-05-21T22:08:18.531Z,6.08
2023-05-21T22:11:09.912Z,5.85
2023-05-21T22:14:01.486Z,5.95
2023-05-21T22:16:55.542Z,5.20
2023-05-21T22:19:47.857Z,5.15
2023-05-21T22:22:39.072Z,5.45
2023-05-21T22:25:30.314Z,5.67
2023-05-21T22:28:23.018Z,5.20
2023-05-21T22:31:14.759Z,5.80
2023-05-21T22:34:06.137Z,5.72
2023-05-21T22:39:37.161Z,6.05
2023-05-21T22:45:08.896Z,4.97
2023-05-21T22:48:03.499Z,4.85
2023-05-21T22:50:54.954Z,5.50
2023-05-21T22:53:46.201Z,5.28
2023-05-21T22:56:37.706Z,5.65
2023-05-21T22:59:30.928Z,5.40
2023-05-21T23:02:22.352Z,5.70
2023-05-21T23:05:13.946Z,5.40
2023-05-21T23:08:05.672Z,5.35
2023-05-21T23:10:57.143Z,5.72
2023-05-21T23:13:48.697Z,5.72
2023-05-21T23:16:42.155Z,5.55
2023-05-21T23:19:33.679Z,5.55
2023-05-21T23:22:25.175Z,5.72
2023-05-21T23:27:56.055Z,6.08
2023-05-21T23:30:48.255Z,5.83
2023-05-21T23:33:39.578Z,5.05
2023-05-21T23:36:31.287Z,5.30
2023-05-21T23:39:22.724Z,5.17
2023-05-21T23:42:14.526Z,4.97
2023-05-21T23:45:07.140Z,5.50
2023-05-21T23:47:58.967Z,5.40
2023-05-21T23:50:50.185Z,5.85
2023-05-21T23:53:41.665Z,5.25
2023-05-21T23:56:33.276Z,5.75
2023-05-21T23:59:24.493Z,5.33
